createdAt,value
2018-12-14T00:01:18.796Z,98865.23
2018-12-14T00:06:22.213Z,98870.00
2018-12-14T00:11:25.720Z,98868.84
2018-12-14T00:16:29.201Z,98876.16
2018-12-14T00:21:32.624Z,98876.76
2018-12-14T00:26:36.024Z,98870.80
2018-12-14T00:31:39.475Z,98879.38
2018-12-14T00:36:42.888Z,98880.22
2018-12-14T00:41:51.765Z,98881.23
2018-12-14T00:46:51.924Z,98874.06
2018-12-14T00:51:55.512Z,98879.70
2018-12-14T00:56:58.925Z,98869.56
2018-12-14T01:02:02.400Z,98880.37
2018-12-14T01:12:14.480Z,98889.48
2018-12-14T01:17:18.324Z,98888.23
2018-12-14T01:22:21.747Z,98896.69
2018-12-14T01:27:25.313Z,98894.75
2018-12-14T01:32:28.929Z,98898.60
2018-12-14T01:37:32.448Z,98896.50
2018-12-14T01:42:35.872Z,98893.95
2018-12-14T01:47:39.420Z,98893.59
2018-12-14T01:52:44.168Z,98892.00
2018-12-14T01:57:47.893Z,98889.38
2018-12-14T02:02:51.302Z,98883.78
2018-12-14T02:07:54.797Z,98883.39
2018-12-14T02:12:58.215Z,98889.27
2018-12-14T02:18:01.736Z,98884.94
2018-12-14T02:23:05.137Z,98886.25
2018-12-14T02:28:08.541Z,98888.48
2018-12-14T02:33:12.094Z,98886.09
2018-12-14T02:38:15.741Z,98883.88
2018-12-14T02:43:20.704Z,98886.61
2018-12-14T02:48:24.367Z,98877.16
2018-12-14T02:53:27.829Z,98877.32
2018-12-14T02:58:31.332Z,98879.89
2018-12-14T03:03:34.751Z,98880.50
2018-12-14T03:08:38.340Z,98878.59
2018-12-14T03:13:41.837Z,98878.51
2018-12-14T03:18:45.342Z,98879.66
2018-12-14T03:23:48.753Z,98872.35
2018-12-14T03:28:52.272Z,98877.76
2018-12-14T03:33:55.941Z,98870.48
2018-12-14T03:44:18.337Z,98866.56
2018-12-14T03:49:22.027Z,98873.91
2018-12-14T03:54:25.660Z,98874.66
2018-12-14T03:59:29.104Z,98873.11
2018-12-14T04:04:32.641Z,98861.72
2018-12-14T04:09:36.157Z,98855.68
2018-12-14T04:14:39.644Z,98863.39
2018-12-14T04:19:43.065Z,98860.69
2018-12-14T04:24:46.479Z,98863.16
2018-12-14T04:29:50.060Z,98869.06
2018-12-14T04:34:53.460Z,98862.91
2018-12-14T04:39:56.957Z,98858.42
2018-12-14T04:45:00.608Z,98861.60
2018-12-14T04:50:04.334Z,98860.48
2018-12-14T04:55:07.983Z,98871.97
2018-12-14T05:00:11.880Z,98874.59
2018-12-14T05:05:15.580Z,98873.80
2018-12-14T05:10:19.205Z,98880.30
2018-12-14T05:15:22.672Z,98892.09
2018-12-14T05:20:26.172Z,98887.53
2018-12-14T05:25:29.591Z,98898.58
2018-12-14T05:30:33.108Z,98891.81
2018-12-14T05:35:36.615Z,98891.22
2018-12-14T05:40:40.016Z,98897.89
2018-12-14T05:45:43.605Z,98894.16
2018-12-14T05:50:47.276Z,98896.66
2018-12-14T05:55:50.760Z,98897.89
2018-12-14T06:00:54.372Z,98899.84
2018-12-14T06:05:57.843Z,98907.70
2018-12-14T06:11:01.479Z,98909.23
2018-12-14T06:16:04.894Z,98911.63
2018-12-14T06:21:08.296Z,98915.41
2018-12-14T06:26:11.708Z,98921.27
2018-12-14T06:31:15.765Z,98932.03
2018-12-14T06:36:19.360Z,98928.34
2018-12-14T06:41:22.826Z,98930.37
2018-12-14T06:46:27.564Z,98928.93
2018-12-14T06:51:31.033Z,98933.44
2018-12-14T06:56:34.551Z,98937.94
2018-12-14T07:01:38.160Z,98940.52
2018-12-14T07:06:41.724Z,98944.97
2018-12-14T07:11:45.264Z,98949.81
2018-12-14T07:16:48.823Z,98963.08
2018-12-14T07:21:52.344Z,98961.75
2018-12-14T07:26:55.779Z,98964.39
2018-12-14T07:31:59.380Z,98976.47
2018-12-14T07:37:02.855Z,98984.14
2018-12-14T07:42:06.347Z,98982.66
2018-12-14T07:47:11.821Z,98991.45
2018-12-14T07:52:15.336Z,98993.28
2018-12-14T07:57:18.898Z,99000.70
2018-12-14T08:02:22.299Z,99003.32
2018-12-14T08:07:25.712Z,99009.14
2018-12-14T08:12:29.144Z,99020.13
2018-12-14T08:17:32.616Z,99027.63
2018-12-14T08:22:36.020Z,99031.92
2018-12-14T08:27:39.493Z,99032.37
2018-12-14T08:32:43.112Z,99038.52
2018-12-14T08:37:46.609Z,99038.01
2018-12-14T08:42:50.033Z,99038.01
2018-12-14T08:47:53.897Z,99046.37
2018-12-14T08:52:57.360Z,99049.09
2018-12-14T08:58:00.853Z,99049.47
2018-12-14T09:03:04.268Z,99056.74
2018-12-14T09:08:07.733Z,99057.25
2018-12-14T09:13:11.132Z,99062.45
2018-12-14T09:18:14.788Z,99072.28
2018-12-14T09:23:18.208Z,99072.42
2018-12-14T09:28:21.624Z,99083.48
2018-12-14T09:33:25.260Z,99079.73
2018-12-14T09:38:28.952Z,99083.27
2018-12-14T09:43:32.352Z,99083.59
2018-12-14T09:48:35.751Z,99082.13
2018-12-14T09:53:39.236Z,99080.95
2018-12-14T09:58:42.739Z,99081.94
2018-12-14T10:03:46.576Z,99079.89
2018-12-14T10:08:50.221Z,99081.84
2018-12-14T10:13:53.663Z,99081.16
2018-12-14T10:18:57.540Z,99083.62
2018-12-14T10:24:00.940Z,99085.50
2018-12-14T10:29:04.510Z,99076.88
2018-12-14T10:34:07.924Z,99077.27
2018-12-14T10:39:11.319Z,99080.30
2018-12-14T10:44:14.781Z,99073.34
2018-12-14T10:49:18.188Z,99062.44
2018-12-14T10:54:22.121Z,99059.10
2018-12-14T10:59:25.517Z,99060.69
2018-12-14T11:04:28.953Z,99053.26
2018-12-14T11:09:32.520Z,99057.43
2018-12-14T11:14:35.928Z,99052.82
2018-12-14T11:19:39.331Z,99049.71
2018-12-14T11:24:42.737Z,99054.41
2018-12-14T11:29:46.140Z,99048.52
2018-12-14T11:34:49.528Z,99053.17
2018-12-14T11:39:53.032Z,99044.59
2018-12-14T11:44:56.445Z,99045.39
2018-12-14T11:49:59.955Z,99044.03
2018-12-14T11:55:03.652Z,99044.08
2018-12-14T12:00:11.128Z,99042.20
2018-12-14T12:05:14.596Z,99041.25
2018-12-14T12:10:18.112Z,99038.81
2018-12-14T12:15:21.897Z,99041.33
2018-12-14T12:20:25.578Z,99040.48
2018-12-14T12:25:29.027Z,99049.67
2018-12-14T12:30:32.540Z,99045.63
2018-12-14T12:35:36.123Z,99043.36
2018-12-14T12:40:39.772Z,99043.80
2018-12-14T12:45:43.404Z,99046.50
2018-12-14T12:50:46.852Z,99047.97
2018-12-14T12:55:50.405Z,99051.78
2018-12-14T13:00:53.852Z,99050.71
2018-12-14T13:05:57.340Z,99049.33
2018-12-14T13:16:03.180Z,99041.17
2018-12-14T13:21:06.653Z,99056.91
2018-12-14T13:26:10.317Z,99055.09
2018-12-14T13:31:14.761Z,99063.20
2018-12-14T13:36:18.528Z,99068.28
2018-12-14T13:41:23.310Z,99068.68
2018-12-14T13:46:27.055Z,99072.97
2018-12-14T13:51:30.580Z,99076.78
2018-12-14T13:56:34.413Z,99084.75
2018-12-14T14:01:38.255Z,99091.48
2018-12-14T14:06:41.771Z,99092.01
2018-12-14T14:11:45.319Z,99105.64
2018-12-14T14:16:49.752Z,99109.78
2018-12-14T14:21:53.270Z,99118.17
2018-12-14T14:26:56.746Z,99121.66
2018-12-14T14:32:00.315Z,99128.66
2018-12-14T14:37:03.816Z,99132.31
2018-12-14T14:42:07.224Z,99138.95
2018-12-14T14:47:10.824Z,99140.58
2018-12-14T14:52:14.458Z,99141.36
2018-12-14T14:57:17.919Z,99143.72
2018-12-14T15:02:21.407Z,99138.76
2018-12-14T15:07:24.893Z,99146.08
2018-12-14T15:12:28.368Z,99152.35
2018-12-14T15:17:31.916Z,99153.30
2018-12-14T15:22:35.404Z,99160.99
2018-12-14T15:27:38.969Z,99150.44
2018-12-14T15:32:42.753Z,99164.23
2018-12-14T15:37:46.464Z,99161.86
2018-12-14T15:42:50.884Z,99164.67
2018-12-14T15:47:54.382Z,99172.91
2018-12-14T15:52:57.865Z,99177.75
2018-12-14T15:58:01.522Z,99187.59
2018-12-14T16:03:05.592Z,99186.02
2018-12-14T16:08:09.000Z,99194.03
2018-12-14T16:13:12.494Z,99190.21
2018-12-14T16:18:16.067Z,99201.61
2018-12-14T16:23:19.664Z,99207.73
2018-12-14T16:28:23.068Z,99218.15
2018-12-14T16:33:26.616Z,99222.48
2018-12-14T16:38:30.068Z,99220.73
2018-12-14T16:43:33.479Z,99223.00
2018-12-14T16:48:37.052Z,99221.28
2018-12-14T16:53:46.140Z,99220.19
2018-12-14T16:58:49.679Z,99212.69
2018-12-14T17:03:53.172Z,99220.33
2018-12-14T17:08:56.728Z,99217.16
2018-12-14T17:14:00.164Z,99219.41
2018-12-14T17:19:03.667Z,99214.78
2018-12-14T17:24:07.140Z,99211.03
2018-12-14T17:29:10.574Z,99226.58
2018-12-14T17:34:14.012Z,99236.47
2018-12-14T17:39:17.654Z,99239.63
2018-12-14T17:44:21.190Z,99251.30
2018-12-14T17:49:24.636Z,99253.52
2018-12-14T17:54:28.156Z,99263.40
2018-12-14T17:59:31.776Z,99271.50
2018-12-14T18:04:35.651Z,99276.70
2018-12-14T18:09:39.133Z,99286.52
2018-12-14T18:14:42.585Z,99287.33
2018-12-14T18:19:46.215Z,99294.59
2018-12-14T18:24:49.940Z,99298.45
2018-12-14T18:29:53.446Z,99308.74
2018-12-14T18:34:57.017Z,99315.02
2018-12-14T18:40:00.509Z,99318.28
2018-12-14T18:45:04.840Z,99319.25
2018-12-14T18:50:09.060Z,99323.69
2018-12-14T18:55:12.647Z,99333.77
2018-12-14T19:00:16.408Z,99344.56
2018-12-14T19:05:19.912Z,99344.26
2018-12-14T19:10:23.444Z,99350.24
2018-12-14T19:15:27.079Z,99356.18
2018-12-14T19:20:30.820Z,99349.74
2018-12-14T19:25:34.308Z,99358.30
2018-12-14T19:30:40.705Z,99360.23
2018-12-14T19:35:44.289Z,99372.88
2018-12-14T19:40:47.955Z,99377.34
2018-12-14T19:45:51.461Z,99379.18
2018-12-14T19:50:55.720Z,99384.52
2018-12-14T19:55:59.161Z,99380.36
2018-12-14T20:01:02.940Z,99385.23
2018-12-14T20:06:06.744Z,99391.94
2018-12-14T20:11:10.388Z,99385.41
2018-12-14T20:16:14.104Z,99386.73
2018-12-14T20:21:17.746Z,99382.14
2018-12-14T20:26:21.272Z,99388.75
2018-12-14T20:31:24.800Z,99390.21
2018-12-14T20:36:28.324Z,99387.94
2018-12-14T20:41:31.816Z,99386.46
2018-12-14T20:46:35.492Z,99396.88
2018-12-14T20:51:39.073Z,99383.84
2018-12-14T20:56:42.696Z,99385.97
2018-12-14T21:01:46.233Z,99380.17
2018-12-14T21:06:49.799Z,99371.96
2018-12-14T21:11:53.323Z,99365.44
2018-12-14T21:16:57.176Z,99368.75
2018-12-14T21:22:00.813Z,99359.92
2018-12-14T21:27:04.232Z,99359.52
2018-12-14T21:32:07.786Z,99358.37
2018-12-14T21:37:11.244Z,99364.27
2018-12-14T21:42:14.761Z,99366.42
2018-12-14T21:47:18.190Z,99365.95
2018-12-14T21:52:22.714Z,99363.64
2018-12-14T21:57:26.418Z,99365.73
2018-12-14T22:02:29.972Z,99371.81
2018-12-14T22:07:33.468Z,99374.90
2018-12-14T22:12:36.887Z,99371.38
2018-12-14T22:17:40.387Z,99371.69
2018-12-14T22:22:43.976Z,99365.02
2018-12-14T22:27:47.632Z,99364.91
2018-12-14T22:32:52.364Z,99358.80
2018-12-14T22:37:55.830Z,99358.05
2018-12-14T22:42:59.345Z,99360.17
2018-12-14T22:48:02.776Z,99361.42
2018-12-14T22:53:06.240Z,99358.86
2018-12-14T22:58:10.660Z,99354.06
2018-12-14T23:03:14.212Z,99355.37
2018-12-14T23:08:17.794Z,99346.88
2018-12-14T23:13:21.314Z,99353.14
2018-12-14T23:18:24.845Z,99358.45
2018-12-14T23:23:28.272Z,99362.88
2018-12-14T23:28:32.724Z,99360.38
2018-12-14T23:33:36.383Z,99366.97
2018-12-14T23:38:40.109Z,99370.17
2018-12-14T23:43:43.616Z,99371.86
2018-12-14T23:48:47.240Z,99371.77
2018-12-14T23:53:50.952Z,99383.58
2018-12-14T23:58:55.273Z,99383.34
